Saint Clement, Missouri
Current Conditions -  °F | °C
As of 6:15 PM on Wednesday 28 Jan 2015 (Local Time) from KPPQ Reporting Station
Clear Clear  
Wind Chill:   Ceiling: Unl
Heat Index:   Visibility: 10mi
Dew Point:   Wind: 15mph
Humidity: 69%   Direction: 140°SE
Pressure: 29.85"   Gusts: NA
Location:  39.321°N, 91.1912°W
Report Text: KPPQ 290015Z AUTO 14013KT 10SM CLR 06/01 A2985 RMK AO2 T00580006
Loading
Personal Weather Stations






























Interactive Weather Map New forecast layout! Learn more

10-Day Weather Forecast

Advertisements
Track Severe Weather on mobile